Temp: 12.6°C   Baro: 1022.4mb
  Wind: 2.0mph   Dir: NE (54°)
  Rain: 0.0mm (0.0mm/hr)
  Solar: 0W/m2  Hum: 82%

Historic data

Bath Spa Weather Station Historical Data
Daily Summary for September 5, 2019 Units:  Both    English   Metric
Daily Weekly Monthly Yearly Custom
  High: Low: Average:
Temperature: 60 °F /  15.6 °C 47.9 °F /  8.8 °C 53.6 °F /  12 °C
Dew Point: 54.7 °F /  12.6 °C 46.8 °F /  8.2 °C 50.9 °F /  10.5 °C
Humidity: 97% 77.8% 91%
Wind Speed: 5.9mph /  9.5km/h - 1.5mph /  2.4km/h
Wind Gust: 11mph /  17.7km/h - -
Wind- - SSW
Pressure: 29.97 in /  1014.8 hPa 29.84 in /  1010.4 hPa -
Precipitation: 0.24 in /  6.1 mm    
Historical Graphs
 
 
Tabular Data for September 5, 2019
Time Temperature Dew Point Pressure Wind Wind Speed Wind Gust Humidity Rainfall Rate (Hourly) solar
00:04 49 °F /  9.4 °C 47.4 °F /  8.6 °C 29.84in /  1010.4hPa Calm   1mph /  1.6km/h 94% 0.00in /  0mm 0 W/m2
00:09 49 °F /  9.4 °C 47.4 °F /  8.6 °C 29.85in /  1010.7hPa Calm   1mph /  1.6km/h 94% 0.00in /  0mm 0 W/m2
00:14 48.9 °F /  9.4 °C 47.4 °F /  8.6 °C 29.85in /  1010.7hPa Calm     94.2% 0.00in /  0mm 0 W/m2
00:19 49 °F /  9.4 °C 47.6 °F /  8.7 °C 29.85in /  1010.7hPa Calm     95% 0.00in /  0mm 0 W/m2
00:24 49.1 °F /  9.5 °C 47.7 °F /  8.7 °C 29.85in /  1010.7hPa Calm     95% 0.00in /  0mm 0 W/m2
00:29 49.1 °F /  9.5 °C 47.7 °F /  8.7 °C 29.85in /  1010.7hPa Calm   1mph /  1.6km/h 95% 0.00in /  0mm 0 W/m2
00:34 49.1 °F /  9.5 °C 47.7 °F /  8.7 °C 29.85in /  1010.7hPa Calm   1mph /  1.6km/h 95% 0.01in /  0.25mm 0 W/m2
00:39 48.9 °F /  9.4 °C 47.5 °F /  8.6 °C 29.85in /  1010.7hPa Calm     95% 0.01in /  0.25mm 0 W/m2
00:44 48.9 °F /  9.4 °C 47.5 °F /  8.6 °C 29.85in /  1010.7hPa Calm     95% 0.01in /  0.25mm 0 W/m2
00:49 48.9 °F /  9.4 °C 47.5 °F /  8.6 °C 29.85in /  1010.7hPa Calm     95% 0.01in /  0.25mm 0 W/m2
00:54 48.9 °F /  9.4 °C 47.5 °F /  8.6 °C 29.86in /  1011.1hPa Calm     95% 0.01in /  0.25mm 0 W/m2
00:59 48.9 °F /  9.4 °C 47.5 °F /  8.6 °C 29.86in /  1011.1hPa Calm     95% 0.01in /  0.25mm 0 W/m2
01:04 48.9 °F /  9.4 °C 47.5 °F /  8.6 °C 29.86in /  1011.1hPa Calm     95% 0.01in /  0.25mm 0 W/m2
01:09 48.9 °F /  9.4 °C 47.5 °F /  8.6 °C 29.86in /  1011.1hPa Calm     95% 0.01in /  0.25mm 0 W/m2
01:14 49.1 °F /  9.5 °C 47.7 °F /  8.7 °C 29.86in /  1011.1hPa Calm     95% 0.01in /  0.25mm 0 W/m2
01:19 49 °F /  9.4 °C 47.6 °F /  8.7 °C 29.86in /  1011.1hPa WNW 0.1mph /  0.2km/h 1mph /  1.6km/h 95% 0.01in /  0.25mm 0 W/m2
01:24 49.1 °F /  9.5 °C 47.7 °F /  8.7 °C 29.86in /  1011.1hPa WNW 0.1mph /  0.2km/h 1mph /  1.6km/h 95% 0.01in /  0.25mm 0 W/m2
01:29 49 °F /  9.4 °C 47.6 °F /  8.7 °C 29.87in /  1011.4hPa Calm     95% 0.01in /  0.25mm 0 W/m2
01:34 48.9 °F /  9.4 °C 47.5 °F /  8.6 °C 29.87in /  1011.4hPa Calm     95% 0.01in /  0.25mm 0 W/m2
01:39 48.9 °F /  9.4 °C 47.5 °F /  8.6 °C 29.87in /  1011.4hPa Calm     95% 0.00in /  0mm 0 W/m2
01:44 48.9 °F /  9.4 °C 47.5 °F /  8.6 °C 29.87in /  1011.4hPa Calm     95% 0.00in /  0mm 0 W/m2
01:49 48.8 °F /  9.3 °C 47.4 °F /  8.6 °C 29.87in /  1011.4hPa Calm     95% 0.00in /  0mm 0 W/m2
01:54 48.7 °F /  9.3 °C 47.3 °F /  8.5 °C 29.87in /  1011.4hPa Calm     95% 0.00in /  0mm 0 W/m2
01:59 48.7 °F /  9.3 °C 47.3 °F /  8.5 °C 29.87in /  1011.4hPa Calm     95% 0.00in /  0mm 0 W/m2
02:04 48.7 °F /  9.3 °C 47.3 °F /  8.5 °C 29.87in /  1011.4hPa Calm     95% 0.00in /  0mm 0 W/m2
02:09 48.9 °F /  9.4 °C 47.5 °F /  8.6 °C 29.87in /  1011.4hPa Calm     95% 0.00in /  0mm 0 W/m2
02:14 48.9 °F /  9.4 °C 47.5 °F /  8.6 °C 29.87in /  1011.4hPa Calm     95% 0.00in /  0mm 0 W/m2
02:19 49 °F /  9.4 °C 47.6 °F /  8.7 °C 29.87in /  1011.4hPa Calm     95% 0.00in /  0mm 0 W/m2
02:24 49 °F /  9.4 °C 47.6 °F /  8.7 °C 29.88in /  1011.7hPa Calm     95% 0.00in /  0mm 0 W/m2
02:29 48.9 °F /  9.4 °C 47.5 °F /  8.6 °C 29.88in /  1011.7hPa Calm     95% 0.00in /  0mm 0 W/m2
02:34 48.9 °F /  9.4 °C 47.5 °F /  8.6 °C 29.87in /  1011.4hPa Calm     95% 0.00in /  0mm 0 W/m2
02:39 48.9 °F /  9.4 °C 47.5 °F /  8.6 °C 29.87in /  1011.4hPa Calm     95% 0.00in /  0mm 0 W/m2
02:44 48.9 °F /  9.4 °C 47.5 °F /  8.6 °C 29.87in /  1011.4hPa Calm     95% 0.00in /  0mm 0 W/m2
02:49 48.9 °F /  9.4 °C 47.5 °F /  8.6 °C 29.87in /  1011.4hPa Calm     95% 0.00in /  0mm 0 W/m2
02:54 48.7 °F /  9.3 °C 47.3 °F /  8.5 °C 29.87in /  1011.4hPa Calm     95% 0.00in /  0mm 0 W/m2
02:59 48.7 °F /  9.3 °C 47.3 °F /  8.5 °C 29.88in /  1011.7hPa Calm     95% 0.00in /  0mm 0 W/m2
03:04 48.7 °F /  9.3 °C 47.2 °F /  8.4 °C 29.88in /  1011.7hPa WNW 0.1mph /  0.2km/h 2mph /  3.2km/h 95% 0.00in /  0mm 0 W/m2
03:09 48.6 °F /  9.2 °C 47.4 °F /  8.6 °C 29.88in /  1011.7hPa Calm     95.8% 0.00in /  0mm 0 W/m2
03:14 48.6 °F /  9.2 °C 47.3 °F /  8.5 °C 29.88in /  1011.7hPa Calm     95.5% 0.00in /  0mm 0 W/m2
03:19 48.5 °F /  9.2 °C 47.4 °F /  8.6 °C 29.88in /  1011.7hPa Calm     96% 0.00in /  0mm 0 W/m2
03:24 48.3 °F /  9.1 °C 47.2 °F /  8.4 °C 29.88in /  1011.7hPa Calm     95.8% 0.00in /  0mm 0 W/m2
03:29 48.2 °F /  9 °C 46.9 °F /  8.3 °C 29.88in /  1011.7hPa Calm     95.3% 0.00in /  0mm 0 W/m2
03:34 48.2 °F /  9 °C 47 °F /  8.3 °C 29.89in /  1012.1hPa Calm     95.5% 0.00in /  0mm 0 W/m2
03:39 48.2 °F /  9 °C 47 °F /  8.3 °C 29.89in /  1012.1hPa Calm     95.6% 0.00in /  0mm 0 W/m2
03:44 48.1 °F /  8.9 °C 47 °F /  8.3 °C 29.88in /  1011.7hPa Calm     96% 0.00in /  0mm 0 W/m2
03:49 48.2 °F /  9 °C 47.1 °F /  8.4 °C 29.88in /  1011.7hPa Calm     96% 0.00in /  0mm 0 W/m2
03:54 48.2 °F /  9 °C 47.1 °F /  8.4 °C 29.89in /  1012.1hPa WNW 0.3mph /  0.5km/h 2mph /  3.2km/h 96% 0.00in /  0mm 0 W/m2
03:59 48.1 °F /  8.9 °C 47 °F /  8.3 °C 29.89in /  1012.1hPa WNW 1.5mph /  2.4km/h 4mph /  6.4km/h 96% 0.00in /  0mm 0 W/m2
04:04 48 °F /  8.9 °C 46.9 °F /  8.3 °C 29.89in /  1012.1hPa Calm   2mph /  3.2km/h 96% 0.00in /  0mm 0 W/m2
04:09 48 °F /  8.9 °C 46.9 °F /  8.3 °C 29.89in /  1012.1hPa WNW 0.2mph /  0.3km/h 2mph /  3.2km/h 96% 0.00in /  0mm 0 W/m2
04:14 48 °F /  8.9 °C 46.9 °F /  8.3 °C 29.89in /  1012.1hPa Calm   1mph /  1.6km/h 96% 0.00in /  0mm 0 W/m2
04:19 48 °F /  8.9 °C 46.9 °F /  8.3 °C 29.89in /  1012.1hPa WNW 0.6mph /  1km/h 2mph /  3.2km/h 96% 0.00in /  0mm 0 W/m2
04:24 47.9 °F /  8.8 °C 46.9 °F /  8.3 °C 29.89in /  1012.1hPa WNW 0.7mph /  1.1km/h 3mph /  4.8km/h 96% 0.00in /  0mm 0 W/m2
04:29 47.9 °F /  8.8 °C 46.8 °F /  8.2 °C 29.89in /  1012.1hPa Calm   1mph /  1.6km/h 96% 0.00in /  0mm 0 W/m2
04:34 48 °F /  8.9 °C 46.9 °F /  8.3 °C 29.89in /  1012.1hPa WNW 0.1mph /  0.2km/h 2mph /  3.2km/h 96% 0.00in /  0mm 0 W/m2
04:39 48 °F /  8.9 °C 46.9 °F /  8.3 °C 29.89in /  1012.1hPa Calm     96% 0.00in /  0mm 0 W/m2
04:44 48 °F /  8.9 °C 46.9 °F /  8.3 °C 29.89in /  1012.1hPa Calm     96% 0.00in /  0mm 0 W/m2
04:49 48 °F /  8.9 °C 46.9 °F /  8.3 °C 29.89in /  1012.1hPa Calm     96% 0.00in /  0mm 0 W/m2
04:54 48 °F /  8.9 °C 46.9 °F /  8.3 °C 29.89in /  1012.1hPa Calm     96% 0.00in /  0mm 0 W/m2
04:59 48.2 °F /  9 °C 47.1 °F /  8.4 °C 29.89in /  1012.1hPa Calm     96% 0.00in /  0mm 0 W/m2
05:04 48.2 °F /  9 °C 47.1 °F /  8.4 °C 29.89in /  1012.1hPa Calm     96% 0.00in /  0mm 0 W/m2
05:09 48.3 °F /  9.1 °C 47.2 °F /  8.4 °C 29.89in /  1012.1hPa Calm     96% 0.00in /  0mm 0 W/m2
05:14 48.2 °F /  9 °C 47.1 °F /  8.4 °C 29.89in /  1012.1hPa Calm     96% 0.00in /  0mm 0 W/m2
05:19 48.2 °F /  9 °C 47.1 °F /  8.4 °C 29.90in /  1012.4hPa WNW 0.1mph /  0.2km/h 1mph /  1.6km/h 96% 0.00in /  0mm 0 W/m2
05:24 48.2 °F /  9 °C 47.1 °F /  8.4 °C 29.90in /  1012.4hPa Calm   1mph /  1.6km/h 96% 0.00in /  0mm 0 W/m2
05:29 48.2 °F /  9 °C 47.1 °F /  8.4 °C 29.90in /  1012.4hPa WNW 0.2mph /  0.3km/h 1mph /  1.6km/h 96% 0.00in /  0mm 0 W/m2
05:34 48.2 °F /  9 °C 47.1 °F /  8.4 °C 29.90in /  1012.4hPa Calm   1mph /  1.6km/h 96% 0.00in /  0mm 0 W/m2
05:39 48.3 °F /  9.1 °C 47.2 °F /  8.4 °C 29.90in /  1012.4hPa Calm     96% 0.00in /  0mm 0 W/m2
05:44 48.4 °F /  9.1 °C 47.3 °F /  8.5 °C 29.90in /  1012.4hPa Calm     96% 0.00in /  0mm 0 W/m2
05:49 48.6 °F /  9.2 °C 47.5 °F /  8.6 °C 29.90in /  1012.4hPa Calm     96% 0.00in /  0mm 0 W/m2
05:54 48.6 °F /  9.2 °C 47.5 °F /  8.6 °C 29.90in /  1012.4hPa Calm     96% 0.00in /  0mm 0 W/m2
05:59 48.6 °F /  9.2 °C 47.5 °F /  8.6 °C 29.90in /  1012.4hPa Calm     96% 0.00in /  0mm 0 W/m2
06:04 48.6 °F /  9.2 °C 47.5 °F /  8.6 °C 29.91in /  1012.8hPa Calm     96% 0.00in /  0mm 0 W/m2
06:09 48.6 °F /  9.2 °C 47.5 °F /  8.6 °C 29.91in /  1012.8hPa Calm     96% 0.00in /  0mm 0 W/m2
06:14 48.6 °F /  9.2 °C 47.5 °F /  8.6 °C 29.90in /  1012.4hPa Calm     96% 0.00in /  0mm 0 W/m2
06:19 48.6 °F /  9.2 °C 47.5 °F /  8.6 °C 29.90in /  1012.4hPa Calm     96% 0.00in /  0mm 0 W/m2
06:24 48.6 °F /  9.2 °C 47.5 °F /  8.6 °C 29.90in /  1012.4hPa Calm     96% 0.00in /  0mm 0 W/m2
06:29 48.6 °F /  9.2 °C 47.5 °F /  8.6 °C 29.90in /  1012.4hPa Calm     96% 0.00in /  0mm 0 W/m2
06:34 48.6 °F /  9.2 °C 47.5 °F /  8.6 °C 29.90in /  1012.4hPa Calm     96% 0.00in /  0mm 0 W/m2
06:39 48.6 °F /  9.2 °C 47.5 °F /  8.6 °C 29.90in /  1012.4hPa Calm     96% 0.00in /  0mm 0 W/m2
06:44 48.6 °F /  9.2 °C 47.5 °F /  8.6 °C 29.90in /  1012.4hPa Calm     96% 0.00in /  0mm 0 W/m2
06:49 48.6 °F /  9.2 °C 47.5 °F /  8.6 °C 29.90in /  1012.4hPa Calm     96% 0.00in /  0mm 0 W/m2
06:54 48.7 °F /  9.3 °C 47.7 °F /  8.7 °C 29.91in /  1012.8hPa Calm     96% 0.00in /  0mm 0 W/m2
06:59 48.7 °F /  9.3 °C 47.7 °F /  8.7 °C 29.91in /  1012.8hPa Calm     96% 0.00in /  0mm 0 W/m2
07:04 48.7 °F /  9.3 °C 47.7 °F /  8.7 °C 29.91in /  1012.8hPa Calm     96% 0.00in /  0mm 0 W/m2
07:09 48.7 °F /  9.3 °C 47.7 °F /  8.7 °C 29.91in /  1012.8hPa Calm     96% 0.00in /  0mm 0 W/m2
07:14 48.7 °F /  9.3 °C 47.7 °F /  8.7 °C 29.91in /  1012.8hPa Calm     96% 0.00in /  0mm 0 W/m2
07:19 48.9 °F /  9.4 °C 47.8 °F /  8.8 °C 29.91in /  1012.8hPa Calm     96% 0.00in /  0mm 0 W/m2
07:24 48.9 °F /  9.4 °C 47.8 °F /  8.8 °C 29.91in /  1012.8hPa Calm     96% 0.00in /  0mm 0 W/m2
07:29 49.1 °F /  9.5 °C 48 °F /  8.9 °C 29.92in /  1013.1hPa WNW 0.4mph /  0.6km/h 2mph /  3.2km/h 96% 0.00in /  0mm 5 W/m2
07:34 49.4 °F /  9.7 °C 48.3 °F /  9.1 °C 29.91in /  1012.8hPa Calm   1mph /  1.6km/h 96% 0.00in /  0mm 9 W/m2
07:39 49.5 °F /  9.7 °C 48.4 °F /  9.1 °C 29.91in /  1012.8hPa Calm   1mph /  1.6km/h 96% 0.00in /  0mm 14 W/m2
07:44 49.6 °F /  9.8 °C 48.5 °F /  9.2 °C 29.91in /  1012.8hPa Calm   1mph /  1.6km/h 96% 0.00in /  0mm 18 W/m2
07:49 49.7 °F /  9.8 °C 48.6 °F /  9.2 °C 29.91in /  1012.8hPa West 0.9mph /  1.4km/h 4mph /  6.4km/h 96% 0.00in /  0mm 21 W/m2
07:54 49.8 °F /  9.9 °C 48.7 °F /  9.3 °C 29.92in /  1013.1hPa West 0.3mph /  0.5km/h 2mph /  3.2km/h 96% 0.00in /  0mm 28 W/m2
07:59 50 °F /  10 °C 48.9 °F /  9.4 °C 29.92in /  1013.1hPa Calm   1mph /  1.6km/h 96% 0.00in /  0mm 33 W/m2
08:04 50.1 °F /  10.1 °C 49 °F /  9.4 °C 29.93in /  1013.4hPa West 0.1mph /  0.2km/h 1mph /  1.6km/h 96% 0.00in /  0mm 42 W/m2
08:09 50.4 °F /  10.2 °C 49.3 °F /  9.6 °C 29.93in /  1013.4hPa Calm   1mph /  1.6km/h 96% 0.00in /  0mm 39 W/m2
08:14 50.5 °F /  10.3 °C 49.4 °F /  9.7 °C 29.93in /  1013.4hPa Calm     96% 0.00in /  0mm 28 W/m2
08:19 50.5 °F /  10.3 °C 49.5 °F /  9.7 °C 29.93in /  1013.4hPa NNW 0.1mph /  0.2km/h 1mph /  1.6km/h 96% 0.01in /  0.25mm 39 W/m2
08:24 50.6 °F /  10.3 °C 49.6 °F /  9.8 °C 29.93in /  1013.4hPa NNW 0.1mph /  0.2km/h 1mph /  1.6km/h 96.8% 0.01in /  0.25mm 39 W/m2
08:29 50.5 °F /  10.3 °C 49.6 °F /  9.8 °C 29.93in /  1013.4hPa NNW 1mph /  1.6km/h 4mph /  6.4km/h 96.4% 0.01in /  0.25mm 40 W/m2
08:34 50.2 °F /  10.1 °C 49.1 °F /  9.5 °C 29.93in /  1013.4hPa NNW 1.5mph /  2.4km/h 4mph /  6.4km/h 96.3% 0.01in /  0.25mm 35 W/m2
08:39 49.8 °F /  9.9 °C 48.8 °F /  9.3 °C 29.93in /  1013.4hPa NNW 0.8mph /  1.3km/h 3mph /  4.8km/h 96.3% 0.01in /  0.25mm 33 W/m2
08:44 49.8 °F /  9.9 °C 48.8 °F /  9.3 °C 29.94in /  1013.8hPa NNW 0.9mph /  1.4km/h 3mph /  4.8km/h 96.2% 0.01in /  0.25mm 33 W/m2
08:49 50 °F /  10 °C 49.1 °F /  9.5 °C 29.94in /  1013.8hPa NNW 0.9mph /  1.4km/h 4mph /  6.4km/h 97% 0.01in /  0.25mm 30 W/m2
08:54 49.9 °F /  9.9 °C 49 °F /  9.4 °C 29.95in /  1014.1hPa NNW 2mph /  3.2km/h 4mph /  6.4km/h 97% 0.01in /  0.25mm 33 W/m2
08:59 50 °F /  10 °C 49.1 °F /  9.5 °C 29.95in /  1014.1hPa NNW 0.9mph /  1.4km/h 4mph /  6.4km/h 97% 0.01in /  0.25mm 33 W/m2
09:04 50.1 °F /  10.1 °C 49.2 °F /  9.6 °C 29.95in /  1014.1hPa Calm   3mph /  4.8km/h 97% 0.01in /  0.25mm 53 W/m2
09:09 50.4 °F /  10.2 °C 49.3 °F /  9.6 °C 29.95in /  1014.1hPa NNW 0.1mph /  0.2km/h 1mph /  1.6km/h 96.3% 0.01in /  0.25mm 62 W/m2
09:14 50.5 °F /  10.3 °C 49.4 °F /  9.7 °C 29.95in /  1014.1hPa NNW 0.5mph /  0.8km/h 3mph /  4.8km/h 96% 0.01in /  0.25mm 62 W/m2
09:19 50.5 °F /  10.3 °C 49.5 °F /  9.7 °C 29.95in /  1014.1hPa Calm   3mph /  4.8km/h 96% 0.01in /  0.25mm 58 W/m2
09:24 50.5 °F /  10.3 °C 49.6 °F /  9.8 °C 29.95in /  1014.1hPa Calm     96.5% 0.00in /  0mm 51 W/m2
09:29 50.5 °F /  10.3 °C 49.6 °F /  9.8 °C 29.95in /  1014.1hPa NNW 0.4mph /  0.6km/h 2mph /  3.2km/h 96.4% 0.00in /  0mm 40 W/m2
09:34 50.5 °F /  10.3 °C 49.5 °F /  9.7 °C 29.96in /  1014.4hPa Calm   2mph /  3.2km/h 96% 0.00in /  0mm 47 W/m2
09:39 50.6 °F /  10.3 °C 49.6 °F /  9.8 °C 29.96in /  1014.4hPa Calm   1mph /  1.6km/h 96.2% 0.00in /  0mm 56 W/m2
09:44 50.8 °F /  10.4 °C 49.9 °F /  9.9 °C 29.96in /  1014.4hPa Calm     97% 0.00in /  0mm 60 W/m2
09:49 50.9 °F /  10.5 °C 49.9 °F /  9.9 °C 29.96in /  1014.4hPa Calm     96.5% 0.00in /  0mm 72 W/m2
09:54 51 °F /  10.6 °C 50 °F /  10 °C 29.96in /  1014.4hPa Calm     96.3% 0.00in /  0mm 83 W/m2
09:59 51.3 °F /  10.7 °C 50.4 °F /  10.2 °C 29.96in /  1014.4hPa Calm     96.7% 0.00in /  0mm 84 W/m2
10:04 51.4 °F /  10.8 °C 50.5 °F /  10.3 °C 29.96in /  1014.4hPa Calm     97% 0.00in /  0mm 81 W/m2
10:09 51.4 °F /  10.8 °C 50.5 °F /  10.3 °C 29.96in /  1014.4hPa Calm     97% 0.00in /  0mm 90 W/m2
10:14 51.6 °F /  10.9 °C 50.7 °F /  10.4 °C 29.96in /  1014.4hPa Calm     97% 0.00in /  0mm 98 W/m2
10:19 51.9 °F /  11.1 °C 51 °F /  10.6 °C 29.96in /  1014.4hPa NNW 0.2mph /  0.3km/h 1mph /  1.6km/h 97% 0.00in /  0mm 114 W/m2
10:24 52.2 °F /  11.2 °C 51.3 °F /  10.7 °C 29.96in /  1014.4hPa Calm   1mph /  1.6km/h 97% 0.00in /  0mm 121 W/m2
10:29 52.3 °F /  11.3 °C 51.4 °F /  10.8 °C 29.97in /  1014.8hPa Calm     97% 0.00in /  0mm 98 W/m2
10:34 52.3 °F /  11.3 °C 51.4 °F /  10.8 °C 29.97in /  1014.8hPa Calm     97% 0.00in /  0mm 123 W/m2
10:39 52.3 °F /  11.3 °C 51.4 °F /  10.8 °C 29.97in /  1014.8hPa NNW 0.1mph /  0.2km/h 1mph /  1.6km/h 97% 0.00in /  0mm 125 W/m2
10:44 52.3 °F /  11.3 °C 51.4 °F /  10.8 °C 29.97in /  1014.8hPa NNW 1.1mph /  1.8km/h 4mph /  6.4km/h 97% 0.00in /  0mm 146 W/m2
10:49 52.3 °F /  11.3 °C 51.4 °F /  10.8 °C 29.97in /  1014.8hPa NNW 0.8mph /  1.3km/h 4mph /  6.4km/h 97% 0.00in /  0mm 153 W/m2
10:54 52.3 °F /  11.3 °C 51.4 °F /  10.8 °C 29.97in /  1014.8hPa NNW 1.6mph /  2.6km/h 4mph /  6.4km/h 97% 0.00in /  0mm 153 W/m2
10:59 52.4 °F /  11.3 °C 51.5 °F /  10.8 °C 29.97in /  1014.8hPa NW 0.2mph /  0.3km/h 3mph /  4.8km/h 97% 0.00in /  0mm 169 W/m2
11:04 52.7 °F /  11.5 °C 51.8 °F /  11 °C 29.96in /  1014.4hPa NW 0.2mph /  0.3km/h 2mph /  3.2km/h 97% 0.00in /  0mm 179 W/m2
11:09 53 °F /  11.7 °C 52.1 °F /  11.2 °C 29.96in /  1014.4hPa NNW 1.4mph /  2.3km/h 4mph /  6.4km/h 97% 0.00in /  0mm 204 W/m2
11:14 53 °F /  11.7 °C 52.1 °F /  11.2 °C 29.96in /  1014.4hPa NNW 0.8mph /  1.3km/h 4mph /  6.4km/h 97% 0.00in /  0mm 204 W/m2
11:19 53.2 °F /  11.8 °C 52.3 °F /  11.3 °C 29.96in /  1014.4hPa NNW 0.5mph /  0.8km/h 3mph /  4.8km/h 96.9% 0.00in /  0mm 186 W/m2
11:24 53.2 °F /  11.8 °C 52.3 °F /  11.3 °C 29.96in /  1014.4hPa NNW 0.6mph /  1km/h 3mph /  4.8km/h 96.8% 0.00in /  0mm 179 W/m2
11:29 53.2 °F /  11.8 °C 52.2 °F /  11.2 °C 29.96in /  1014.4hPa WNW 1.7mph /  2.7km/h 5mph /  8km/h 96.2% 0.00in /  0mm 199 W/m2
11:34 53.2 °F /  11.8 °C 52.1 °F /  11.2 °C 29.96in /  1014.4hPa West 1.7mph /  2.7km/h 5mph /  8km/h 96% 0.00in /  0mm 197 W/m2
11:39 53.2 °F /  11.8 °C 52.2 °F /  11.2 °C 29.96in /  1014.4hPa South 2.1mph /  3.4km/h 5mph /  8km/h 96% 0.00in /  0mm 185 W/m2
11:44 53.4 °F /  11.9 °C 52.4 °F /  11.3 °C 29.96in /  1014.4hPa South 0.9mph /  1.4km/h 3mph /  4.8km/h 96.2% 0.00in /  0mm 195 W/m2
11:49 53.6 °F /  12 °C 52.5 °F /  11.4 °C 29.96in /  1014.4hPa South 1.5mph /  2.4km/h 5mph /  8km/h 96% 0.00in /  0mm 195 W/m2
11:54 54 °F /  12.2 °C 52.9 °F /  11.6 °C 29.96in /  1014.4hPa SSE 1mph /  1.6km/h 5mph /  8km/h 96% 0.00in /  0mm 190 W/m2
11:59 54 °F /  12.2 °C 53 °F /  11.7 °C 29.96in /  1014.4hPa SSE 1.7mph /  2.7km/h 6mph /  9.7km/h 96% 0.00in /  0mm 214 W/m2
12:04 54 °F /  12.2 °C 52.9 °F /  11.6 °C 29.96in /  1014.4hPa SSE 2.2mph /  3.5km/h 6mph /  9.7km/h 96% 0.00in /  0mm 253 W/m2
12:09 54.2 °F /  12.3 °C 53.1 °F /  11.7 °C 29.96in /  1014.4hPa SSE 1.1mph /  1.8km/h 5mph /  8km/h 96% 0.00in /  0mm 265 W/m2
12:14 54.5 °F /  12.5 °C 53.4 °F /  11.9 °C 29.96in /  1014.4hPa SSE 1.1mph /  1.8km/h 4mph /  6.4km/h 96% 0.00in /  0mm 288 W/m2
12:19 55 °F /  12.8 °C 54 °F /  12.2 °C 29.96in /  1014.4hPa SSE 2.7mph /  4.3km/h 6mph /  9.7km/h 96% 0.00in /  0mm 478 W/m2
12:24 55.7 °F /  13.2 °C 54.6 °F /  12.6 °C 29.96in /  1014.4hPa SE 2.5mph /  4km/h 6mph /  9.7km/h 95.9% 0.00in /  0mm 387 W/m2
12:29 55.9 °F /  13.3 °C 54.4 °F /  12.4 °C 29.96in /  1014.4hPa SE 2.7mph /  4.3km/h 6mph /  9.7km/h 95% 0.00in /  0mm 396 W/m2
12:34 56.2 °F /  13.4 °C 54.7 °F /  12.6 °C 29.96in /  1014.4hPa SE 3.5mph /  5.6km/h 8mph /  12.9km/h 94.5% 0.00in /  0mm 649 W/m2
12:39 56.3 °F /  13.5 °C 54.3 °F /  12.4 °C 29.96in /  1014.4hPa SSE 3.4mph /  5.5km/h 8mph /  12.9km/h 93% 0.00in /  0mm 714 W/m2
12:44 56.9 °F /  13.8 °C 54 °F /  12.2 °C 29.96in /  1014.4hPa SSE 3mph /  4.8km/h 8mph /  12.9km/h 90.2% 0.00in /  0mm 714 W/m2
12:49 57.5 °F /  14.2 °C 54.1 °F /  12.3 °C 29.95in /  1014.1hPa SSE 3.3mph /  5.3km/h 7mph /  11.3km/h 88.7% 0.00in /  0mm 777 W/m2
12:54 58.2 °F /  14.6 °C 54.2 °F /  12.3 °C 29.95in /  1014.1hPa SE 3.8mph /  6.1km/h 9mph /  14.5km/h 86.5% 0.00in /  0mm 740 W/m2
12:59 57.7 °F /  14.3 °C 53.2 °F /  11.8 °C 29.95in /  1014.1hPa SSE 4.7mph /  7.6km/h 9mph /  14.5km/h 85% 0.00in /  0mm 492 W/m2
13:04 57.9 °F /  14.4 °C 53.5 °F /  11.9 °C 29.95in /  1014.1hPa SSE 2.1mph /  3.4km/h 7mph /  11.3km/h 85.4% 0.00in /  0mm 439 W/m2
13:09 57.9 °F /  14.4 °C 53.4 °F /  11.9 °C 29.95in /  1014.1hPa SE 2.8mph /  4.5km/h 7mph /  11.3km/h 85% 0.00in /  0mm 410 W/m2
13:14 57.9 °F /  14.4 °C 53.4 °F /  11.9 °C 29.95in /  1014.1hPa SE 1.3mph /  2.1km/h 7mph /  11.3km/h 85% 0.00in /  0mm 394 W/m2
13:19 58.7 °F /  14.8 °C 54.2 °F /  12.3 °C 29.95in /  1014.1hPa ESE 3.8mph /  6.1km/h 7mph /  11.3km/h 84.9% 0.00in /  0mm 420 W/m2
13:24 58.8 °F /  14.9 °C 53.6 °F /  12 °C 29.95in /  1014.1hPa SE 3.6mph /  5.8km/h 7mph /  11.3km/h 83% 0.00in /  0mm 399 W/m2
13:29 58.6 °F /  14.8 °C 53.4 °F /  11.9 °C 29.95in /  1014.1hPa SE 2.1mph /  3.4km/h 7mph /  11.3km/h 83% 0.00in /  0mm 274 W/m2
13:34 58.3 °F /  14.6 °C 52.9 °F /  11.6 °C 29.95in /  1014.1hPa SE 3.4mph /  5.5km/h 7mph /  11.3km/h 82.3% 0.00in /  0mm 251 W/m2
13:39 57.7 °F /  14.3 °C 52.3 °F /  11.3 °C 29.95in /  1014.1hPa SSE 3mph /  4.8km/h 7mph /  11.3km/h 82% 0.00in /  0mm 251 W/m2
13:44 57.6 °F /  14.2 °C 52.2 °F /  11.2 °C 29.95in /  1014.1hPa SSE 2.7mph /  4.3km/h 6mph /  9.7km/h 82% 0.00in /  0mm 220 W/m2
13:49 57.6 °F /  14.2 °C 52.2 °F /  11.2 °C 29.94in /  1013.8hPa SSE 2.7mph /  4.3km/h 7mph /  11.3km/h 82.1% 0.00in /  0mm 214 W/m2
13:54 57.6 °F /  14.2 °C 52.3 °F /  11.3 °C 29.94in /  1013.8hPa SSE 3.1mph /  5km/h 7mph /  11.3km/h 82.2% 0.00in /  0mm 241 W/m2
13:59 58 °F /  14.4 °C 52.5 °F /  11.4 °C 29.94in /  1013.8hPa SSE 2.5mph /  4km/h 5mph /  8km/h 81.7% 0.00in /  0mm 348 W/m2
14:04 58.2 °F /  14.6 °C 52.3 °F /  11.3 °C 29.94in /  1013.8hPa SSE 1.8mph /  2.9km/h 5mph /  8km/h 80.7% 0.00in /  0mm 448 W/m2
14:09 58.1 °F /  14.5 °C 52.2 °F /  11.2 °C 29.94in /  1013.8hPa SSE 2.6mph /  4.2km/h 6mph /  9.7km/h 80.8% 0.00in /  0mm 323 W/m2
14:14 58.3 °F /  14.6 °C 52.5 °F /  11.4 °C 29.94in /  1013.8hPa SSE 1.9mph /  3.1km/h 4mph /  6.4km/h 81% 0.00in /  0mm 306 W/m2
14:19 58.9 °F /  14.9 °C 53.1 °F /  11.7 °C 29.94in /  1013.8hPa SE 3.5mph /  5.6km/h 6mph /  9.7km/h 81% 0.00in /  0mm 306 W/m2
14:24 60 °F /  15.6 °C 54.1 °F /  12.3 °C 29.94in /  1013.8hPa SE 1.7mph /  2.7km/h 6mph /  9.7km/h 80.7% 0.00in /  0mm 501 W/m2
14:29 59.9 °F /  15.5 °C 53 °F /  11.7 °C 29.94in /  1013.8hPa SE 3.4mph /  5.5km/h 7mph /  11.3km/h 77.8% 0.00in /  0mm 473 W/m2
14:34 59.2 °F /  15.1 °C 52.3 °F /  11.3 °C 29.94in /  1013.8hPa SSE 3.4mph /  5.5km/h 7mph /  11.3km/h 78% 0.00in /  0mm 223 W/m2
14:39 58.8 °F /  14.9 °C 52.2 °F /  11.2 °C 29.94in /  1013.8hPa SSE 3.9mph /  6.3km/h 7mph /  11.3km/h 78.4% 0.00in /  0mm 223 W/m2
14:44 58.8 °F /  14.9 °C 52.3 °F /  11.3 °C 29.94in /  1013.8hPa SSE 2.7mph /  4.3km/h 6mph /  9.7km/h 79% 0.00in /  0mm 232 W/m2
14:49 59 °F /  15 °C 52.7 °F /  11.5 °C 29.94in /  1013.8hPa SSE 2mph /  3.2km/h 5mph /  8km/h 79.5% 0.00in /  0mm 218 W/m2
14:54 59.3 °F /  15.2 °C 53.1 °F /  11.7 °C 29.94in /  1013.8hPa SSE 0.8mph /  1.3km/h 4mph /  6.4km/h 79.9% 0.00in /  0mm 202 W/m2
14:59 59.4 °F /  15.2 °C 53.1 °F /  11.7 °C 29.94in /  1013.8hPa SSE 2.8mph /  4.5km/h 7mph /  11.3km/h 79.6% 0.00in /  0mm 195 W/m2
15:04 59.3 °F /  15.2 °C 53.2 °F /  11.8 °C 29.94in /  1013.8hPa SSE 2.9mph /  4.7km/h 5mph /  8km/h 80% 0.00in /  0mm 185 W/m2
15:09 59.4 °F /  15.2 °C 53.2 °F /  11.8 °C 29.94in /  1013.8hPa SSE 1.3mph /  2.1km/h 5mph /  8km/h 80% 0.00in /  0mm 181 W/m2
15:14 59.4 °F /  15.2 °C 53.4 °F /  11.9 °C 29.93in /  1013.4hPa SSE 3mph /  4.8km/h 7mph /  11.3km/h 80.3% 0.00in /  0mm 169 W/m2
15:19 59.4 °F /  15.2 °C 53.3 °F /  11.8 °C 29.93in /  1013.4hPa SSE 1.5mph /  2.4km/h 6mph /  9.7km/h 80.4% 0.00in /  0mm 163 W/m2
15:24 59.4 °F /  15.2 °C 53.7 °F /  12.1 °C 29.93in /  1013.4hPa SE 2.5mph /  4km/h 7mph /  11.3km/h 81% 0.00in /  0mm 153 W/m2
15:29 59.4 °F /  15.2 °C 53.6 °F /  12 °C 29.93in /  1013.4hPa SE 3mph /  4.8km/h 7mph /  11.3km/h 81% 0.00in /  0mm 155 W/m2
15:34 59.1 °F /  15.1 °C 53.3 °F /  11.8 °C 29.93in /  1013.4hPa SE 2.9mph /  4.7km/h 7mph /  11.3km/h 81% 0.00in /  0mm 148 W/m2
15:39 59.2 °F /  15.1 °C 53.4 °F /  11.9 °C 29.93in /  1013.4hPa SSE 1.7mph /  2.7km/h 7mph /  11.3km/h 81% 0.00in /  0mm 179 W/m2
15:44 59.3 °F /  15.2 °C 53.5 °F /  11.9 °C 29.93in /  1013.4hPa SSE 3.6mph /  5.8km/h 6mph /  9.7km/h 81% 0.00in /  0mm 190 W/m2
15:49 59.2 °F /  15.1 °C 53.4 °F /  11.9 °C 29.93in /  1013.4hPa SSE 3.7mph /  6km/h 8mph /  12.9km/h 81% 0.00in /  0mm 181 W/m2
15:54 59.4 °F /  15.2 °C 53.6 °F /  12 °C 29.93in /  1013.4hPa SE 3.3mph /  5.3km/h 8mph /  12.9km/h 81% 0.00in /  0mm 183 W/m2
15:59 59.6 °F /  15.3 °C 53.9 °F /  12.2 °C 29.93in /  1013.4hPa SE 1.8mph /  2.9km/h 7mph /  11.3km/h 81% 0.00in /  0mm 171 W/m2
16:04 59.6 °F /  15.3 °C 53.5 °F /  11.9 °C 29.93in /  1013.4hPa SSE 5.9mph /  9.5km/h 10mph /  16.1km/h 80.2% 0.00in /  0mm 148 W/m2
16:09 59.4 °F /  15.2 °C 53.2 °F /  11.8 °C 29.93in /  1013.4hPa South 3.7mph /  6km/h 8mph /  12.9km/h 80% 0.00in /  0mm 104 W/m2
16:14 59.4 °F /  15.2 °C 53.5 °F /  11.9 °C 29.93in /  1013.4hPa South 3.2mph /  5.1km/h 7mph /  11.3km/h 80.8% 0.00in /  0mm 105 W/m2
16:19 59.4 °F /  15.2 °C 53.6 °F /  12 °C 29.93in /  1013.4hPa South 2.8mph /  4.5km/h 8mph /  12.9km/h 81% 0.00in /  0mm 105 W/m2
16:24 59.4 °F /  15.2 °C 53.6 °F /  12 °C 29.93in /  1013.4hPa SSE 2.4mph /  3.9km/h 8mph /  12.9km/h 81% 0.00in /  0mm 93 W/m2
16:29 59.4 °F /  15.2 °C 53.6 °F /  12 °C 29.93in /  1013.4hPa South 3.2mph /  5.1km/h 8mph /  12.9km/h 81% 0.00in /  0mm 76 W/m2
16:34 59.2 °F /  15.1 °C 53.1 °F /  11.7 °C 29.93in /  1013.4hPa South 4.4mph /  7.1km/h 9mph /  14.5km/h 80.1% 0.00in /  0mm 53 W/m2
16:39 59.2 °F /  15.1 °C 53.1 °F /  11.7 °C 29.93in /  1013.4hPa SSE 1.9mph /  3.1km/h 5mph /  8km/h 80% 0.00in /  0mm 37 W/m2
16:44 59 °F /  15 °C 52.9 °F /  11.6 °C 29.93in /  1013.4hPa SSE 2.3mph /  3.7km/h 5mph /  8km/h 80% 0.00in /  0mm 42 W/m2
16:49 59 °F /  15 °C 52.6 °F /  11.4 °C 29.93in /  1013.4hPa SSE 3mph /  4.8km/h 6mph /  9.7km/h 79.2% 0.00in /  0mm 46 W/m2
16:54 59 °F /  15 °C 52.5 °F /  11.4 °C 29.93in /  1013.4hPa South 0.9mph /  1.4km/h 4mph /  6.4km/h 79% 0.00in /  0mm 53 W/m2
16:59 59 °F /  15 °C 52.7 °F /  11.5 °C 29.93in /  1013.4hPa SSE 3.9mph /  6.3km/h 6mph /  9.7km/h 79.6% 0.00in /  0mm 58 W/m2
17:04 58.9 °F /  14.9 °C 52.8 °F /  11.6 °C 29.93in /  1013.4hPa SSE 4.3mph /  6.9km/h 8mph /  12.9km/h 80% 0.00in /  0mm 62 W/m2
17:09 58.9 °F /  14.9 °C 53 °F /  11.7 °C 29.93in /  1013.4hPa SSE 1.5mph /  2.4km/h 5mph /  8km/h 80.7% 0.00in /  0mm 51 W/m2
17:14 59 °F /  15 °C 53.2 °F /  11.8 °C 29.93in /  1013.4hPa SSE 1.9mph /  3.1km/h 4mph /  6.4km/h 81% 0.00in /  0mm 42 W/m2
17:19 58.9 °F /  14.9 °C 53.2 °F /  11.8 °C 29.93in /  1013.4hPa SSE 2.8mph /  4.5km/h 6mph /  9.7km/h 81% 0.00in /  0mm 37 W/m2
17:24 58.8 °F /  14.9 °C 53.1 °F /  11.7 °C 29.93in /  1013.4hPa South 3.3mph /  5.3km/h 7mph /  11.3km/h 81% 0.00in /  0mm 49 W/m2
17:29 58.8 °F /  14.9 °C 53.4 °F /  11.9 °C 29.93in /  1013.4hPa SSE 3.3mph /  5.3km/h 7mph /  11.3km/h 82% 0.00in /  0mm 54 W/m2
17:34 58.8 °F /  14.9 °C 53.4 °F /  11.9 °C 29.93in /  1013.4hPa SSE 2.5mph /  4km/h 6mph /  9.7km/h 82% 0.00in /  0mm 33 W/m2
17:39 58.6 °F /  14.8 °C 53.2 °F /  11.8 °C 29.93in /  1013.4hPa SSE 2.8mph /  4.5km/h 6mph /  9.7km/h 82% 0.00in /  0mm 11 W/m2
17:44 58.6 °F /  14.8 °C 53.2 °F /  11.8 °C 29.93in /  1013.4hPa SSE 1.6mph /  2.6km/h 5mph /  8km/h 82% 0.00in /  0mm 9 W/m2
17:49 58.6 °F /  14.8 °C 53.2 °F /  11.8 °C 29.93in /  1013.4hPa SSE 3mph /  4.8km/h 7mph /  11.3km/h 82.2% 0.00in /  0mm 16 W/m2
17:54 58.5 °F /  14.7 °C 53.1 °F /  11.7 °C 29.93in /  1013.4hPa SSE 2.5mph /  4km/h 7mph /  11.3km/h 82.1% 0.00in /  0mm 18 W/m2
17:59 58.5 °F /  14.7 °C 53.2 °F /  11.8 °C 29.93in /  1013.4hPa SSE 1.3mph /  2.1km/h 5mph /  8km/h 83% 0.00in /  0mm 16 W/m2
18:04 58.5 °F /  14.7 °C 53.2 °F /  11.8 °C 29.92in /  1013.1hPa SSE 1.5mph /  2.4km/h 5mph /  8km/h 83% 0.00in /  0mm 12 W/m2
18:09 58.5 °F /  14.7 °C 53.2 °F /  11.8 °C 29.92in /  1013.1hPa SSE 1mph /  1.6km/h 5mph /  8km/h 83% 0.00in /  0mm 9 W/m2
18:14 58.5 °F /  14.7 °C 53.2 °F /  11.8 °C 29.92in /  1013.1hPa SSE 1.1mph /  1.8km/h 4mph /  6.4km/h 83% 0.00in /  0mm 0 W/m2
18:19 58.5 °F /  14.7 °C 53.2 °F /  11.8 °C 29.92in /  1013.1hPa SSE 1.1mph /  1.8km/h 5mph /  8km/h 83% 0.00in /  0mm 0 W/m2
18:24 58.5 °F /  14.7 °C 53.2 °F /  11.8 °C 29.92in /  1013.1hPa SSE 1.8mph /  2.9km/h 4mph /  6.4km/h 83% 0.00in /  0mm 0 W/m2
18:29 58.3 °F /  14.6 °C 53.1 °F /  11.7 °C 29.92in /  1013.1hPa SSE 3.3mph /  5.3km/h 6mph /  9.7km/h 83% 0.00in /  0mm 0 W/m2
18:34 58.2 °F /  14.6 °C 53 °F /  11.7 °C 29.92in /  1013.1hPa SSE 1.5mph /  2.4km/h 6mph /  9.7km/h 83% 0.00in /  0mm 0 W/m2
18:39 58.1 °F /  14.5 °C 52.9 °F /  11.6 °C 29.91in /  1012.8hPa SSE 2.3mph /  3.7km/h 6mph /  9.7km/h 83% 0.00in /  0mm 0 W/m2
18:44 58.1 °F /  14.5 °C 52.9 °F /  11.6 °C 29.91in /  1012.8hPa SSE 1.9mph /  3.1km/h 5mph /  8km/h 83% 0.00in /  0mm 0 W/m2
18:49 58 °F /  14.4 °C 52.8 °F /  11.6 °C 29.91in /  1012.8hPa SSE 2.3mph /  3.7km/h 7mph /  11.3km/h 83% 0.00in /  0mm 0 W/m2
18:54 57.9 °F /  14.4 °C 53.1 °F /  11.7 °C 29.91in /  1012.8hPa SSE 2.3mph /  3.7km/h 7mph /  11.3km/h 83.9% 0.00in /  0mm 0 W/m2
18:59 57.9 °F /  14.4 °C 53.1 °F /  11.7 °C 29.91in /  1012.8hPa SSE 0.8mph /  1.3km/h 5mph /  8km/h 84% 0.00in /  0mm 0 W/m2
19:04 57.8 °F /  14.3 °C 53 °F /  11.7 °C 29.91in /  1012.8hPa SSE 2.6mph /  4.2km/h 6mph /  9.7km/h 84% 0.00in /  0mm 0 W/m2
19:09 57.7 °F /  14.3 °C 52.9 °F /  11.6 °C 29.91in /  1012.8hPa SSE 2.6mph /  4.2km/h 6mph /  9.7km/h 84% 0.00in /  0mm 0 W/m2
19:14 57.7 °F /  14.3 °C 53.1 °F /  11.7 °C 29.91in /  1012.8hPa SSE 2.4mph /  3.9km/h 6mph /  9.7km/h 84.8% 0.00in /  0mm 0 W/m2
19:19 57.6 °F /  14.2 °C 53.1 °F /  11.7 °C 29.91in /  1012.8hPa SSE 2.9mph /  4.7km/h 6mph /  9.7km/h 85% 0.00in /  0mm 0 W/m2
19:24 57.6 °F /  14.2 °C 53.1 °F /  11.7 °C 29.91in /  1012.8hPa SSE 3.8mph /  6.1km/h 8mph /  12.9km/h 85% 0.00in /  0mm 0 W/m2
19:29 57.6 °F /  14.2 °C 53.1 °F /  11.7 °C 29.91in /  1012.8hPa SSE 2.9mph /  4.7km/h 7mph /  11.3km/h 85% 0.00in /  0mm 0 W/m2
19:34 57.5 °F /  14.2 °C 53.2 °F /  11.8 °C 29.90in /  1012.4hPa SSE 4.6mph /  7.4km/h 8mph /  12.9km/h 85.7% 0.00in /  0mm 0 W/m2
19:39 57.3 °F /  14.1 °C 53.2 °F /  11.8 °C 29.90in /  1012.4hPa SSE 3.1mph /  5km/h 8mph /  12.9km/h 86% 0.00in /  0mm 0 W/m2
19:44 57.2 °F /  14 °C 53.1 °F /  11.7 °C 29.91in /  1012.8hPa SSE 4.3mph /  6.9km/h 7mph /  11.3km/h 86% 0.00in /  0mm 0 W/m2
19:49 57.1 °F /  13.9 °C 53.1 °F /  11.7 °C 29.91in /  1012.8hPa SSE 4.8mph /  7.7km/h 8mph /  12.9km/h 86.4% 0.00in /  0mm 0 W/m2
19:54 57 °F /  13.9 °C 53.2 °F /  11.8 °C 29.91in /  1012.8hPa SSE 3.6mph /  5.8km/h 8mph /  12.9km/h 87% 0.00in /  0mm 0 W/m2
19:59 57 °F /  13.9 °C 53.2 °F /  11.8 °C 29.91in /  1012.8hPa SSE 3.9mph /  6.3km/h 8mph /  12.9km/h 87.2% 0.00in /  0mm 0 W/m2
20:04 56.8 °F /  13.8 °C 53.2 °F /  11.8 °C 29.91in /  1012.8hPa SSE 4.9mph /  7.9km/h 10mph /  16.1km/h 88% 0.00in /  0mm 0 W/m2
20:09 56.8 °F /  13.8 °C 53.2 °F /  11.8 °C 29.91in /  1012.8hPa South 4.4mph /  7.1km/h 8mph /  12.9km/h 88% 0.00in /  0mm 0 W/m2
20:14 56.7 °F /  13.7 °C 53.2 °F /  11.8 °C 29.91in /  1012.8hPa South 2.4mph /  3.9km/h 8mph /  12.9km/h 88.5% 0.00in /  0mm 0 W/m2
20:19 56.7 °F /  13.7 °C 53.4 °F /  11.9 °C 29.91in /  1012.8hPa South 4mph /  6.4km/h 7mph /  11.3km/h 89% 0.00in /  0mm 0 W/m2
20:24 56.6 °F /  13.7 °C 53.3 °F /  11.8 °C 29.91in /  1012.8hPa South 2.7mph /  4.3km/h 7mph /  11.3km/h 89% 0.00in /  0mm 0 W/m2
20:29 56.5 °F /  13.6 °C 53.4 °F /  11.9 °C 29.91in /  1012.8hPa South 2.8mph /  4.5km/h 6mph /  9.7km/h 89.5% 0.00in /  0mm 0 W/m2
20:34 56.3 °F /  13.5 °C 53.4 °F /  11.9 °C 29.91in /  1012.8hPa South 2.9mph /  4.7km/h 7mph /  11.3km/h 90% 0.00in /  0mm 0 W/m2
20:39 56.3 °F /  13.5 °C 53.4 °F /  11.9 °C 29.90in /  1012.4hPa South 2.8mph /  4.5km/h 5mph /  8km/h 90% 0.01in /  0.25mm 0 W/m2
20:44 56.2 °F /  13.4 °C 53.5 °F /  11.9 °C 29.90in /  1012.4hPa South 4mph /  6.4km/h 8mph /  12.9km/h 90.3% 0.01in /  0.25mm 0 W/m2
20:49 56.1 °F /  13.4 °C 53.6 °F /  12 °C 29.90in /  1012.4hPa South 3.7mph /  6km/h 8mph /  12.9km/h 91% 0.02in /  0.51mm 0 W/m2
20:54 56.1 °F /  13.4 °C 53.6 °F /  12 °C 29.90in /  1012.4hPa South 2.9mph /  4.7km/h 8mph /  12.9km/h 91% 0.02in /  0.51mm 0 W/m2
20:59 56.1 °F /  13.4 °C 53.6 °F /  12 °C 29.90in /  1012.4hPa SSE 2.8mph /  4.5km/h 6mph /  9.7km/h 91% 0.02in /  0.51mm 0 W/m2
21:04 56 °F /  13.3 °C 53.5 °F /  11.9 °C 29.90in /  1012.4hPa SSE 3.7mph /  6km/h 8mph /  12.9km/h 91.2% 0.02in /  0.51mm 0 W/m2
21:09 55.9 °F /  13.3 °C 53.6 °F /  12 °C 29.90in /  1012.4hPa SSE 4.9mph /  7.9km/h 11mph /  17.7km/h 92% 0.02in /  0.51mm 0 W/m2
21:14 55.9 °F /  13.3 °C 53.6 °F /  12 °C 29.90in /  1012.4hPa SSE 2.3mph /  3.7km/h 7mph /  11.3km/h 92% 0.02in /  0.51mm 0 W/m2
21:19 55.9 °F /  13.3 °C 53.6 °F /  12 °C 29.89in /  1012.1hPa South 4.4mph /  7.1km/h 10mph /  16.1km/h 92% 0.03in /  0.76mm 0 W/m2
21:24 55.9 °F /  13.3 °C 53.6 °F /  12 °C 29.89in /  1012.1hPa SE 3.6mph /  5.8km/h 10mph /  16.1km/h 92% 0.03in /  0.76mm 0 W/m2
21:29 55.9 °F /  13.3 °C 53.6 °F /  12 °C 29.89in /  1012.1hPa SSE 2.5mph /  4km/h 7mph /  11.3km/h 92% 0.03in /  0.76mm 0 W/m2
21:34 55.9 °F /  13.3 °C 53.6 °F /  12 °C 29.89in /  1012.1hPa SSE 1.5mph /  2.4km/h 6mph /  9.7km/h 92.1% 0.04in /  1.02mm 0 W/m2
21:39 55.9 °F /  13.3 °C 53.9 °F /  12.2 °C 29.89in /  1012.1hPa SSE 2.4mph /  3.9km/h 7mph /  11.3km/h 93% 0.03in /  0.76mm 0 W/m2
21:44 55.8 °F /  13.2 °C 53.8 °F /  12.1 °C 29.89in /  1012.1hPa SSE 3.7mph /  6km/h 8mph /  12.9km/h 93% 0.03in /  0.76mm 0 W/m2
21:49 55.8 °F /  13.2 °C 53.8 °F /  12.1 °C 29.88in /  1011.7hPa SSE 2.4mph /  3.9km/h 8mph /  12.9km/h 93% 0.02in /  0.51mm 0 W/m2
21:54 55.8 °F /  13.2 °C 53.8 °F /  12.1 °C 29.88in /  1011.7hPa SSE 2.2mph /  3.5km/h 7mph /  11.3km/h 93% 0.02in /  0.51mm 0 W/m2
21:59 55.8 °F /  13.2 °C 53.8 °F /  12.1 °C 29.88in /  1011.7hPa SSE 2.3mph /  3.7km/h 7mph /  11.3km/h 93% 0.02in /  0.51mm 0 W/m2
22:04 55.8 °F /  13.2 °C 53.8 °F /  12.1 °C 29.88in /  1011.7hPa SSE 4.6mph /  7.4km/h 9mph /  14.5km/h 93% 0.02in /  0.51mm 0 W/m2
22:09 55.8 °F /  13.2 °C 53.8 °F /  12.1 °C 29.88in /  1011.7hPa SSE 1.7mph /  2.7km/h 5mph /  8km/h 93% 0.03in /  0.76mm 0 W/m2
22:14 55.8 °F /  13.2 °C 53.8 °F /  12.1 °C 29.88in /  1011.7hPa SSE 3mph /  4.8km/h 6mph /  9.7km/h 93% 0.04in /  1.02mm 0 W/m2
22:19 55.6 °F /  13.1 °C 53.6 °F /  12 °C 29.88in /  1011.7hPa South 4.5mph /  7.2km/h 8mph /  12.9km/h 93% 0.04in /  1.02mm 0 W/m2
22:24 55.6 °F /  13.1 °C 53.6 °F /  12 °C 29.88in /  1011.7hPa South 3mph /  4.8km/h 7mph /  11.3km/h 93% 0.06in /  1.52mm 0 W/m2
22:29 55.6 °F /  13.1 °C 53.6 °F /  12 °C 29.88in /  1011.7hPa South 3.9mph /  6.3km/h 7mph /  11.3km/h 93% 0.06in /  1.52mm 0 W/m2
22:34 55.6 °F /  13.1 °C 53.6 °F /  12 °C 29.88in /  1011.7hPa South 2.2mph /  3.5km/h 7mph /  11.3km/h 93% 0.07in /  1.78mm 0 W/m2
22:39 55.6 °F /  13.1 °C 53.6 °F /  12 °C 29.88in /  1011.7hPa South 2.3mph /  3.7km/h 6mph /  9.7km/h 93% 0.09in /  2.29mm 0 W/m2
22:44 55.6 °F /  13.1 °C 53.8 °F /  12.1 °C 29.88in /  1011.7hPa South 1.6mph /  2.6km/h 5mph /  8km/h 93.4% 0.10in /  2.54mm 0 W/m2
22:49 55.7 °F /  13.2 °C 53.8 °F /  12.1 °C 29.87in /  1011.4hPa South 2.1mph /  3.4km/h 5mph /  8km/h 93.4% 0.11in /  2.79mm 0 W/m2
22:54 55.7 °F /  13.2 °C 54 °F /  12.2 °C 29.87in /  1011.4hPa South 1.2mph /  1.9km/h 5mph /  8km/h 94% 0.13in /  3.3mm 0 W/m2
22:59 55.6 °F /  13.1 °C 54 °F /  12.2 °C 29.87in /  1011.4hPa South 1.7mph /  2.7km/h 6mph /  9.7km/h 94% 0.13in /  3.3mm 0 W/m2
23:04 55.7 °F /  13.2 °C 54 °F /  12.2 °C 29.87in /  1011.4hPa South 1.1mph /  1.8km/h 5mph /  8km/h 94% 0.14in /  3.56mm 0 W/m2
23:09 55.6 °F /  13.1 °C 54 °F /  12.2 °C 29.86in /  1011.1hPa South 1.5mph /  2.4km/h 4mph /  6.4km/h 94% 0.14in /  3.56mm 0 W/m2
23:14 55.6 °F /  13.1 °C 54 °F /  12.2 °C 29.86in /  1011.1hPa South 2.3mph /  3.7km/h 6mph /  9.7km/h 94% 0.14in /  3.56mm 0 W/m2
23:19 55.6 °F /  13.1 °C 54 °F /  12.2 °C 29.86in /  1011.1hPa South 0.7mph /  1.1km/h 6mph /  9.7km/h 94% 0.13in /  3.3mm 0 W/m2
23:24 55.7 °F /  13.2 °C 54 °F /  12.2 °C 29.85in /  1010.7hPa South 2.3mph /  3.7km/h 5mph /  8km/h 94% 0.13in /  3.3mm 0 W/m2
23:29 55.7 °F /  13.2 °C 54 °F /  12.2 °C 29.85in /  1010.7hPa South 3.1mph /  5km/h 6mph /  9.7km/h 94% 0.12in /  3.05mm 0 W/m2
23:34 55.7 °F /  13.2 °C 54.1 °F /  12.3 °C 29.85in /  1010.7hPa South 1.4mph /  2.3km/h 4mph /  6.4km/h 94% 0.11in /  2.79mm 0 W/m2
23:39 55.8 °F /  13.2 °C 54.1 °F /  12.3 °C 29.85in /  1010.7hPa South 2.7mph /  4.3km/h 5mph /  8km/h 94% 0.09in /  2.29mm 0 W/m2
23:44 55.8 °F /  13.2 °C 54.1 °F /  12.3 °C 29.85in /  1010.7hPa South 1mph /  1.6km/h 5mph /  8km/h 94% 0.09in /  2.29mm 0 W/m2
23:49 55.8 °F /  13.2 °C 54.1 °F /  12.3 °C 29.85in /  1010.7hPa South 0.4mph /  0.6km/h 2mph /  3.2km/h 94% 0.08in /  2.03mm 0 W/m2
23:54 55.8 °F /  13.2 °C 54.1 °F /  12.3 °C 29.84in /  1010.4hPa South 0.4mph /  0.6km/h 2mph /  3.2km/h 94% 0.07in /  1.78mm 0 W/m2
23:59 55.8 °F /  13.2 °C 54.1 °F /  12.3 °C 29.84in /  1010.4hPa South 1.1mph /  1.8km/h 5mph /  8km/h 94% 0.06in /  1.52mm 0 W/m2
Bath Spa Weather
Compliments of Weather Underground - 2 mb